Terminal Aerodrome Forecast
Issued by NWS

Home | Current Version | Previous Version | Graphics & Text | Print | Product List | Glossary On
Versions: 1 2 3 4 5 6 7 8 9 10 11 12 13 14 15 16 17 18 19 20 21 22 23
000
FTUS43 KBIS 211700
TAFJMS
TAF
KJMS 211740Z 2118/2218 15011KT 1/2SM FZFG OVC002
      TEMPO 2118/2122 1/4SM FZFG OVC003
     FM212200 14010KT 4SM BR OVC005
      TEMPO 2123/2202 1SM BR OVC002
     FM220200 12011KT 1/2SM -FZDZ FZFG OVC002
     FM220800 07006KT 1/4SM -SN FZFG OVC002=

USA.gov is the U.S. government's official web portal to all federal, state and local government web resources and services.